Time;durP1;ratioP1;P1;durP2;ratioP2;P2;SDS_P1;SDS_P2;PMS_P1;PMS_P2;Temp;Humidity;BMP_temperature;BMP_pressure;BME280_temperature;BME280_humidity;BME280_pressure;Samples;Min_cycle;Max_cycle;Signal;HPM_P1;HPM_P2
2021/05/14 00:00:12;;;;;;;9.40;8.40;;;;;;;9.95;70.09;100833.66;696559;28;875;-45
2021/05/14 00:00:32;;;;;;;9.57;8.30;;;;;;;9.94;70.08;100836.34;696278;28;1436;-46
2021/05/14 00:00:53;;;;;;;10.35;8.48;;;;;;;9.90;70.07;100837.38;696467;28;949;-46
2021/05/14 00:01:13;;;;;;;9.48;8.15;;;;;;;9.90;69.98;100827.69;696518;28;828;-44
2021/05/14 00:01:33;;;;;;;10.53;8.57;;;;;;;9.86;70.20;100828.75;696566;28;913;-44
2021/05/14 00:01:55;;;;;;;10.40;8.70;;;;;;;9.85;70.54;100832.31;696543;28;986;-47
2021/05/14 00:02:15;;;;;;;11.00;8.40;;;;;;;9.89;70.20;100833.91;696552;28;819;-46
2021/05/14 00:02:36;;;;;;;11.07;8.30;;;;;;;9.91;70.48;100829.44;696634;28;923;-45
2021/05/14 00:02:56;;;;;;;9.50;8.30;;;;;;;9.96;70.18;100824.84;696400;28;1029;-45
2021/05/14 00:03:16;;;;;;;9.53;8.23;;;;;;;9.95;70.35;100828.41;696533;28;1054;-46
2021/05/14 00:03:37;;;;;;;10.10;8.15;;;;;;;9.97;70.15;100826.53;696554;28;1331;-46
2021/05/14 00:03:57;;;;;;;10.33;8.43;;;;;;;9.88;70.51;100829.56;696397;28;1359;-47
2021/05/14 00:04:19;;;;;;;10.50;8.70;;;;;;;9.89;70.52;100826.00;696647;28;859;-45
2021/05/14 00:04:42;;;;;;;9.85;8.38;;;;;;;9.83;70.35;100828.84;696131;28;1561;-46
2021/05/14 00:05:03;;;;;;;10.10;8.73;;;;;;;9.81;70.43;100825.44;696591;28;903;-46
2021/05/14 00:05:24;;;;;;;9.93;8.50;;;;;;;9.81;70.63;100828.09;696555;28;1319;-46
2021/05/14 00:05:44;;;;;;;9.68;8.27;;;;;;;9.73;70.64;100823.09;696548;28;895;-49
2021/05/14 00:06:04;;;;;;;9.97;8.20;;;;;;;9.78;70.37;100820.31;696261;28;1506;-48
2021/05/14 00:06:30;;;;;;;9.43;8.05;;;;;;;9.80;70.70;100822.84;696669;28;907;-46
2021/05/14 00:06:50;;;;;;;9.80;8.40;;;;;;;9.77;70.41;100826.47;696364;28;1910;-46
2021/05/14 00:07:11;;;;;;;9.77;8.10;;;;;;;9.76;70.38;100822.13;696542;28;771;-47
2021/05/14 00:07:31;;;;;;;9.87;8.00;;;;;;;9.78;70.45;100820.31;696285;28;1455;-45
2021/05/14 00:07:51;;;;;;;9.80;7.90;;;;;;;9.77;70.35;100828.25;696655;28;871;-45
2021/05/14 00:08:12;;;;;;;10.00;8.00;;;;;;;9.78;70.33;100825.56;696552;28;1054;-47
2021/05/14 00:08:32;;;;;;;9.35;7.88;;;;;;;9.78;70.37;100815.03;696085;28;1025;-46
2021/05/14 00:08:52;;;;;;;8.70;7.63;;;;;;;9.81;70.32;100830.72;696565;28;893;-46
2021/05/14 00:09:14;;;;;;;9.17;7.97;;;;;;;9.79;70.72;100827.28;696438;28;1054;-46
2021/05/14 00:09:34;;;;;;;9.60;8.40;;;;;;;9.83;70.53;100825.38;696671;28;1072;-48
2021/05/14 00:09:54;;;;;;;9.47;7.80;;;;;;;9.84;70.21;100825.34;696508;28;792;-46
2021/05/14 00:10:19;;;;;;;8.83;7.93;;;;;;;9.84;70.61;100822.69;696374;28;838;-48
2021/05/14 00:10:40;;;;;;;8.95;8.02;;;;;;;9.83;70.62;100823.59;696530;28;839;-46
2021/05/14 00:11:00;;;;;;;9.40;8.03;;;;;;;9.81;70.57;100828.09;696428;28;915;-49
2021/05/14 00:11:20;;;;;;;9.60;8.00;;;;;;;9.78;70.34;100827.34;696490;28;860;-45
2021/05/14 00:11:42;;;;;;;9.77;7.53;;;;;;;9.78;70.38;100825.56;695930;28;1286;-46
2021/05/14 00:12:02;;;;;;;10.40;8.10;;;;;;;9.73;70.28;100827.50;696491;28;909;-46
2021/05/14 00:12:23;;;;;;;10.05;8.07;;;;;;;9.76;70.30;100827.38;696524;28;859;-46
2021/05/14 00:12:44;;;;;;;9.30;7.83;;;;;;;9.77;70.16;100829.09;696303;28;1522;-45
2021/05/14 00:13:06;;;;;;;8.65;7.72;;;;;;;9.77;70.21;100829.09;696472;28;881;-45
2021/05/14 00:13:26;;;;;;;8.65;7.30;;;;;;;9.79;69.91;100827.28;696463;28;937;-45
2021/05/14 00:13:47;;;;;;;9.33;7.67;;;;;;;9.77;70.06;100823.81;696397;28;1426;-45
2021/05/14 00:14:08;;;;;;;8.77;7.70;;;;;;;9.75;70.18;100823.91;696568;28;882;-45
2021/05/14 00:14:29;;;;;;;9.48;7.80;;;;;;;9.74;70.44;100827.47;696484;28;898;-45
2021/05/14 00:14:50;;;;;;;9.30;7.70;;;;;;;9.75;70.24;100825.69;696344;28;1085;-46
2021/05/14 00:15:11;;;;;;;8.70;7.60;;;;;;;9.77;70.09;100822.97;696463;28;841;-45
2021/05/14 00:15:31;;;;;;;9.05;7.60;;;;;;;9.78;70.25;100830.81;696536;28;861;-46
2021/05/14 00:15:53;;;;;;;9.47;7.80;;;;;;;9.77;70.24;100831.72;696269;28;1655;-45
2021/05/14 00:16:13;;;;;;;9.27;7.63;;;;;;;9.72;69.99;100831.91;696585;28;1017;-46
2021/05/14 00:16:34;;;;;;;10.10;7.67;;;;;;;9.71;70.10;100829.34;696442;28;835;-46
2021/05/14 00:16:54;;;;;;;10.75;7.90;;;;;;;9.71;70.06;100830.19;696523;28;1025;-45
2021/05/14 00:17:15;;;;;;;10.50;7.90;;;;;;;9.69;70.16;100834.66;696431;28;915;-45
2021/05/14 00:17:35;;;;;;;10.50;8.07;;;;;;;9.66;70.22;100831.28;696451;28;931;-46
2021/05/14 00:17:55;;;;;;;8.90;7.28;;;;;;;9.69;70.30;100828.53;696498;28;1007;-47
2021/05/14 00:18:16;;;;;;;9.87;7.23;;;;;;;9.71;70.38;100835.47;696415;28;989;-45
2021/05/14 00:18:36;;;;;;;9.87;8.00;;;;;;;9.70;70.34;100832.88;696033;28;847;-45
2021/05/14 00:18:56;;;;;;;10.27;7.80;;;;;;;9.69;70.16;100836.44;696282;28;967;-46
2021/05/14 00:19:19;;;;;;;10.07;7.83;;;;;;;9.65;70.24;100842.75;696467;28;899;-46
2021/05/14 00:19:39;;;;;;;9.13;7.63;;;;;;;9.64;70.49;100831.34;696333;28;1498;-45
2021/05/14 00:20:00;;;;;;;9.33;7.60;;;;;;;9.67;70.28;100830.34;696437;28;1264;-46
2021/05/14 00:20:23;;;;;;;9.68;7.85;;;;;;;9.63;70.56;100832.25;696511;28;966;-46
2021/05/14 00:20:46;;;;;;;9.55;7.53;;;;;;;9.63;70.54;100832.25;696491;28;1091;-45
2021/05/14 00:21:06;;;;;;;9.85;7.47;;;;;;;9.64;70.33;100838.41;696294;28;926;-46
2021/05/14 00:21:31;;;;;;;9.63;7.77;;;;;;;9.60;70.14;100839.41;696766;28;986;-45
2021/05/14 00:21:51;;;;;;;10.02;8.05;;;;;;;9.60;70.14;100836.78;696536;28;1046;-45
2021/05/14 00:22:11;;;;;;;9.47;8.03;;;;;;;9.60;70.43;100834.13;696453;28;879;-45
2021/05/14 00:22:31;;;;;;;9.53;8.13;;;;;;;9.62;70.26;100840.22;696520;28;780;-46
2021/05/14 00:22:52;;;;;;;9.17;8.17;;;;;;;9.63;70.45;100831.41;696471;28;879;-46
2021/05/14 00:23:13;;;;;;;9.23;8.03;;;;;;;9.62;70.15;100840.22;696430;28;978;-45
2021/05/14 00:23:33;;;;;;;9.43;7.85;;;;;;;9.61;70.09;100839.38;696607;28;1018;-45
2021/05/14 00:23:56;;;;;;;10.15;8.18;;;;;;;9.60;70.09;100831.50;696326;28;1212;-45
2021/05/14 00:24:17;;;;;;;9.68;8.20;;;;;;;9.62;70.27;100842.84;696605;28;950;-45
2021/05/14 00:24:40;;;;;;;9.90;7.90;;;;;;;9.60;70.06;100831.50;696392;28;1053;-46
2021/05/14 00:25:08;;;;;;;9.93;8.10;;;;;;;9.58;70.34;100839.47;696524;28;927;-46
2021/05/14 00:25:28;;;;;;;9.27;8.20;;;;;;;9.60;70.42;100834.13;696447;28;890;-45
2021/05/14 00:25:48;;;;;;;8.98;7.97;;;;;;;9.62;70.08;100835.81;696137;28;1562;-45
2021/05/14 00:26:08;;;;;;;9.30;8.30;;;;;;;9.58;69.94;100838.63;696165;28;1666;-46
2021/05/14 00:26:29;;;;;;;9.83;8.47;;;;;;;9.57;70.08;100836.91;696192;28;1507;-45
2021/05/14 00:26:49;;;;;;;10.00;8.45;;;;;;;9.52;70.20;100835.28;695976;28;1981;-46
2021/05/14 00:27:09;;;;;;;9.43;8.07;;;;;;;9.52;70.27;100835.28;696425;28;860;-45
2021/05/14 00:27:30;;;;;;;9.50;8.00;;;;;;;9.52;70.11;100834.44;696431;28;816;-45
2021/05/14 00:27:50;;;;;;;10.53;8.47;;;;;;;9.51;70.29;100844.09;696545;28;975;-45
2021/05/14 00:28:10;;;;;;;10.03;8.20;;;;;;;9.50;70.04;100836.28;696625;28;856;-47
2021/05/14 00:28:30;;;;;;;9.73;8.30;;;;;;;9.48;69.93;100835.47;695987;28;863;-44
2021/05/14 00:28:51;;;;;;;9.10;8.07;;;;;;;9.46;69.94;100834.66;696524;28;978;-47
2021/05/14 00:29:11;;;;;;;9.93;8.47;;;;;;;9.47;70.10;100842.50;696412;28;919;-46
2021/05/14 00:29:36;;;;;;;9.73;8.25;;;;;;;9.46;70.34;100834.66;696527;28;829;-44
2021/05/14 00:29:58;;;;;;;10.13;8.48;;;;;;;9.39;70.33;100834.03;696552;28;860;-45
2021/05/14 00:30:19;;;;;;;9.68;8.50;;;;;;;9.36;70.28;100839.44;696438;28;861;-46
2021/05/14 00:30:40;;;;;;;9.88;8.32;;;;;;;9.37;70.64;100841.13;696315;28;1023;-45
2021/05/14 00:31:00;;;;;;;10.10;8.40;;;;;;;9.39;70.67;100831.41;696362;28;782;-46
2021/05/14 00:31:20;;;;;;;9.50;8.23;;;;;;;9.38;70.45;100842.84;695741;28;1372;-46
2021/05/14 00:31:41;;;;;;;9.50;8.47;;;;;;;9.36;70.79;100838.53;695388;28;954;-46
2021/05/14 00:32:01;;;;;;;11.20;8.80;;;;;;;9.36;70.80;100839.44;696323;28;815;-46
2021/05/14 00:32:21;;;;;;;10.77;8.90;;;;;;;9.35;70.79;100837.69;696372;28;1038;-46
2021/05/14 00:32:44;;;;;;;9.47;8.40;;;;;;;9.37;70.94;100832.38;696269;28;931;-45
2021/05/14 00:33:04;;;;;;;9.98;8.55;;;;;;;9.37;70.79;100830.63;696068;28;1156;-45
2021/05/14 00:33:24;;;;;;;9.83;8.30;;;;;;;9.35;71.18;100829.78;696383;28;888;-45
2021/05/14 00:33:45;;;;;;;10.40;8.47;;;;;;;9.35;71.13;100837.69;696453;28;1403;-45
2021/05/14 00:34:07;;;;;;;9.80;8.80;;;;;;;9.32;71.16;100832.53;696617;28;890;-45
2021/05/14 00:34:28;;;;;;;10.57;8.50;;;;;;;9.34;71.11;100825.47;696449;28;1328;-46
2021/05/14 00:34:48;;;;;;;10.53;8.70;;;;;;;9.32;71.39;100835.16;696383;28;903;-47
2021/05/14 00:35:08;;;;;;;9.97;8.60;;;;;;;9.31;71.12;100836.09;696456;28;1103;-44
2021/05/14 00:35:29;;;;;;;9.70;8.45;;;;;;;9.30;71.45;100831.75;696621;28;871;-45
2021/05/14 00:35:49;;;;;;;9.77;8.60;;;;;;;9.34;71.27;100835.97;696148;28;1564;-44
2021/05/14 00:36:10;;;;;;;10.02;8.75;;;;;;;9.35;71.38;100832.44;695888;28;1595;-46
2021/05/14 00:36:30;;;;;;;9.77;8.60;;;;;;;9.36;71.47;100834.16;696420;28;979;-48
2021/05/14 00:36:50;;;;;;;9.57;8.40;;;;;;;9.33;71.31;100834.28;696446;28;1066;-47
2021/05/14 00:37:11;;;;;;;10.67;8.70;;;;;;;9.35;71.46;100840.31;696185;28;1499;-46
2021/05/14 00:37:31;;;;;;;10.37;8.10;;;;;;;9.40;71.34;100835.75;696178;28;1518;-47
2021/05/14 00:37:52;;;;;;;10.83;8.60;;;;;;;9.40;71.32;100837.53;696240;28;1398;-46
2021/05/14 00:38:14;;;;;;;9.48;8.48;;;;;;;9.38;71.11;100837.56;696262;28;960;-46
2021/05/14 00:38:38;;;;;;;9.30;8.30;;;;;;;9.39;71.08;100838.44;695253;28;1406;-46
2021/05/14 00:39:01;;;;;;;9.82;8.45;;;;;;;9.40;71.15;100830.50;696088;28;1526;-46
2021/05/14 00:39:21;;;;;;;9.68;8.43;;;;;;;9.40;71.12;100841.03;696071;28;907;-47
2021/05/14 00:39:43;;;;;;;9.97;8.90;;;;;;;9.38;71.40;100839.34;696341;28;1435;-46
2021/05/14 00:40:08;;;;;;;10.77;8.77;;;;;;;9.36;71.49;100841.16;696466;28;1025;-45
2021/05/14 00:40:29;;;;;;;11.00;8.80;;;;;;;9.29;71.63;100837.94;696511;28;906;-45
2021/05/14 00:40:49;;;;;;;11.18;9.13;;;;;;;9.24;71.96;100829.34;696539;28;866;-45
2021/05/14 00:41:09;;;;;;;10.18;9.07;;;;;;;9.28;71.74;100838.81;696378;28;981;-45
2021/05/14 00:41:32;;;;;;;10.37;9.27;;;;;;;9.30;71.99;100837.00;696390;28;911;-46
2021/05/14 00:41:59;;;;;;;9.90;8.75;;;;;;;9.30;71.99;100839.66;696428;28;857;-45
2021/05/14 00:42:19;;;;;;;10.50;8.70;;;;;;;9.32;71.92;100836.94;696507;28;925;-48
2021/05/14 00:42:40;;;;;;;10.98;8.68;;;;;;;9.35;71.78;100842.94;696241;28;1459;-45
2021/05/14 00:43:03;;;;;;;10.53;8.60;;;;;;;9.34;71.80;100835.97;696440;28;1494;-46
2021/05/14 00:43:23;;;;;;;10.18;8.60;;;;;;;9.35;71.76;100837.69;696349;28;983;-47
2021/05/14 00:43:48;;;;;;;10.07;8.73;;;;;;;9.39;71.71;100836.66;696347;28;1312;-46
2021/05/14 00:44:32;;;;;;;10.38;9.02;;;;;;;9.39;71.55;100839.28;696494;28;1001;-45
2021/05/14 00:44:52;;;;;;;9.30;8.30;;;;;;;9.39;71.64;100838.44;693749;28;903;-44
2021/05/14 00:45:13;;;;;;;10.40;8.63;;;;;;;9.36;71.89;100842.06;693766;28;812;-45
2021/05/14 00:45:42;;;;;;;9.98;8.50;;;;;;;9.34;71.55;100840.38;693503;28;1061;-45
2021/05/14 00:46:02;;;;;;;10.43;9.05;;;;;;;9.34;71.57;100841.25;693783;28;978;-46
2021/05/14 00:46:24;;;;;;;11.48;8.63;;;;;;;9.34;71.88;100835.13;693695;28;882;-48
2021/05/14 00:46:47;;;;;;;11.52;8.80;;;;;;;9.33;71.92;100839.53;693770;28;1922;-46
2021/05/14 00:47:09;;;;;;;11.30;8.80;;;;;;;9.36;71.64;100836.78;694133;28;1579;-45
2021/05/14 00:47:32;;;;;;;10.98;9.05;;;;;;;9.37;71.74;100840.28;696389;28;887;-46
2021/05/14 00:47:53;;;;;;;9.77;8.75;;;;;;;9.38;71.71;100845.47;696522;28;894;-46
2021/05/14 00:48:13;;;;;;;10.53;8.67;;;;;;;9.41;71.54;100840.09;696481;28;872;-44
2021/05/14 00:48:36;;;;;;;10.13;8.57;;;;;;;9.41;71.51;100842.72;696072;28;977;-45
2021/05/14 00:48:56;;;;;;;9.90;8.65;;;;;;;9.41;71.47;100837.47;696653;28;848;-45
2021/05/14 00:49:16;;;;;;;9.65;8.40;;;;;;;9.47;71.37;100844.28;696200;28;906;-44
2021/05/14 00:49:42;;;;;;;9.20;8.10;;;;;;;9.50;70.92;100841.53;696412;28;883;-45
2021/05/14 00:50:04;;;;;;;9.45;8.40;;;;;;;9.51;71.09;100843.25;696362;28;925;-46
2021/05/14 00:50:25;;;;;;;9.52;8.55;;;;;;;9.50;71.01;100842.41;696472;28;1134;-47
2021/05/14 00:50:48;;;;;;;9.68;8.50;;;;;;;9.53;70.68;100846.66;696546;28;1053;-46
2021/05/14 00:51:09;;;;;;;10.20;8.32;;;;;;;9.55;70.81;100844.00;696376;28;877;-46
2021/05/14 00:51:30;;;;;;;9.85;8.52;;;;;;;9.56;70.74;100843.06;696254;28;1479;-45
2021/05/14 00:51:53;;;;;;;9.40;8.40;;;;;;;9.54;70.65;100843.16;696341;28;843;-45
2021/05/14 00:52:16;;;;;;;10.48;9.02;;;;;;;9.51;70.62;100844.09;696522;28;1065;-48
2021/05/14 00:52:36;;;;;;;10.38;8.35;;;;;;;9.55;70.65;100841.38;696471;28;941;-48
2021/05/14 00:52:57;;;;;;;10.33;8.77;;;;;;;9.52;70.38;100842.31;696341;28;963;-46
2021/05/14 00:53:17;;;;;;;9.82;8.48;;;;;;;9.55;70.56;100844.00;696362;28;850;-50
2021/05/14 00:53:38;;;;;;;9.83;8.33;;;;;;;9.54;70.42;100842.28;696112;28;1494;-44
2021/05/14 00:53:58;;;;;;;10.18;8.55;;;;;;;9.57;70.34;100847.44;696418;28;966;-45
2021/05/14 00:54:19;;;;;;;10.03;8.43;;;;;;;9.56;69.99;100835.19;696491;28;918;-49
2021/05/14 00:54:40;;;;;;;9.43;8.02;;;;;;;9.61;69.96;100844.63;696239;28;1482;-49
2021/05/14 00:55:04;;;;;;;10.38;8.40;;;;;;;9.60;70.13;100839.41;696283;28;1136;-47
2021/05/14 00:55:24;;;;;;;9.60;8.60;;;;;;;9.60;70.08;100842.03;696368;28;937;-49
2021/05/14 00:55:44;;;;;;;10.15;8.88;;;;;;;9.59;70.08;100840.31;696370;28;823;-46
2021/05/14 00:56:06;;;;;;;11.47;8.90;;;;;;;9.56;70.05;100846.56;696295;28;1244;-46
2021/05/14 00:56:29;;;;;;;10.32;8.73;;;;;;;9.55;70.32;100834.31;696362;28;942;-45
2021/05/14 00:56:50;;;;;;;9.93;8.52;;;;;;;9.54;69.95;100840.50;696501;28;1005;-45
2021/05/14 00:57:13;;;;;;;10.55;8.93;;;;;;;9.55;70.07;100841.38;696175;28;1562;-46
2021/05/14 00:57:34;;;;;;;10.18;8.90;;;;;;;9.57;70.00;100847.44;696182;28;1073;-46
2021/05/14 00:57:55;;;;;;;9.98;8.95;;;;;;;9.57;69.91;100839.53;696313;28;867;-45
2021/05/14 00:58:15;;;;;;;10.48;8.95;;;;;;;9.61;69.94;100838.50;696150;28;889;-45
2021/05/14 00:58:36;;;;;;;9.68;8.38;;;;;;;9.59;70.05;100843.81;695832;28;899;-46
2021/05/14 00:58:56;;;;;;;9.38;8.25;;;;;;;9.60;69.76;100842.03;695952;28;1078;-46
2021/05/14 00:59:17;;;;;;;10.53;9.17;;;;;;;9.57;69.98;100843.03;696184;28;784;-45
2021/05/14 00:59:44;;;;;;;10.83;9.23;;;;;;;9.56;70.00;100849.19;696386;28;812;-46
2021/05/14 01:00:06;;;;;;;10.20;8.55;;;;;;;9.51;70.13;100844.09;696278;28;828;-48
2021/05/14 01:00:26;;;;;;;9.65;8.65;;;;;;;9.50;70.27;100847.66;696411;28;859;-46
2021/05/14 01:00:53;;;;;;;10.07;8.88;;;;;;;9.46;70.61;100846.06;696473;28;1009;-50
2021/05/14 01:01:13;;;;;;;10.43;8.70;;;;;;;9.44;70.92;100847.88;696384;28;1014;-46
2021/05/14 01:01:33;;;;;;;10.43;8.70;;;;;;;9.41;70.71;100842.72;696285;28;884;-46
2021/05/14 01:01:54;;;;;;;10.83;8.90;;;;;;;9.38;70.94;100844.63;696330;28;1033;-46
2021/05/14 01:02:16;;;;;;;10.68;8.90;;;;;;;9.38;70.90;100848.09;696355;28;1005;-46
2021/05/14 01:02:42;;;;;;;10.13;8.35;;;;;;;9.42;70.98;100840.94;696447;28;832;-45
2021/05/14 01:03:02;;;;;;;9.50;8.02;;;;;;;9.44;71.02;100842.63;696460;28;811;-46
2021/05/14 01:03:24;;;;;;;9.87;8.53;;;;;;;9.39;71.01;100838.44;696464;28;896;-48
2021/05/14 01:03:44;;;;;;;10.85;9.25;;;;;;;9.33;70.96;100844.78;696163;28;1209;-45
2021/05/14 01:04:05;;;;;;;12.37;8.90;;;;;;;9.29;71.29;100840.56;696498;28;902;-47
2021/05/14 01:04:25;;;;;;;10.45;8.93;;;;;;;9.32;71.16;100842.19;696394;28;1008;-47
2021/05/14 01:04:48;;;;;;;10.23;8.80;;;;;;;9.28;71.16;100846.72;696361;28;946;-46
2021/05/14 01:05:09;;;;;;;11.25;9.10;;;;;;;9.29;71.26;100840.56;696169;28;1518;-46
2021/05/14 01:05:29;;;;;;;11.20;9.17;;;;;;;9.22;71.47;100833.78;696021;28;890;-45
2021/05/14 01:05:50;;;;;;;10.40;8.87;;;;;;;9.30;71.00;100844.91;696166;28;1319;-46
2021/05/14 01:06:10;;;;;;;10.57;9.00;;;;;;;9.30;71.36;100844.91;695991;28;1392;-46
2021/05/14 01:06:31;;;;;;;11.77;9.60;;;;;;;9.31;71.11;100843.13;696000;28;895;-46
2021/05/14 01:06:52;;;;;;;11.55;9.48;;;;;;;9.27;71.33;100851.13;696274;28;1910;-45
2021/05/14 01:07:16;;;;;;;10.70;9.30;;;;;;;9.28;71.56;100850.19;695937;28;1547;-46
2021/05/14 01:07:36;;;;;;;10.75;9.32;;;;;;;9.28;71.64;100849.34;696137;28;1451;-46
2021/05/14 01:08:02;;;;;;;11.65;9.30;;;;;;;9.27;71.57;100847.66;696142;28;1463;-46
2021/05/14 01:08:22;;;;;;;10.68;8.80;;;;;;;9.27;71.64;100850.28;693409;28;922;-46
2021/05/14 01:08:43;;;;;;;10.40;9.30;;;;;;;9.29;71.70;100851.09;693356;28;990;-45
2021/05/14 01:09:06;;;;;;;10.25;9.15;;;;;;;9.26;71.63;100838.03;693471;28;868;-45
2021/05/14 01:09:29;;;;;;;10.25;9.05;;;;;;;9.31;71.69;100843.97;693652;28;886;-46
2021/05/14 01:09:50;;;;;;;10.52;8.77;;;;;;;9.31;71.45;100845.75;693562;28;904;-48
2021/05/14 01:10:11;;;;;;;10.95;9.07;;;;;;;9.33;71.32;100842.16;693645;28;816;-44
2021/05/14 01:10:32;;;;;;;10.38;8.73;;;;;;;9.36;71.43;100849.06;693609;28;843;-45
2021/05/14 01:10:53;;;;;;;10.50;8.57;;;;;;;9.37;71.06;100848.16;693536;28;814;-45
2021/05/14 01:11:13;;;;;;;11.32;9.13;;;;;;;9.38;71.13;100842.84;693746;28;835;-46
2021/05/14 01:11:35;;;;;;;10.30;9.02;;;;;;;9.35;70.94;100848.22;693638;28;852;-47
2021/05/14 01:11:57;;;;;;;10.55;9.45;;;;;;;9.37;71.10;100840.28;693565;28;950;-47
2021/05/14 01:12:17;;;;;;;10.40;9.30;;;;;;;9.40;71.14;100845.44;693718;28;939;-47
2021/05/14 01:12:37;;;;;;;10.23;9.02;;;;;;;9.40;71.09;100841.03;693617;28;858;-49
2021/05/14 01:12:58;;;;;;;10.20;8.80;;;;;;;9.39;71.15;100844.53;693680;28;897;-50
2021/05/14 01:13:26;;;;;;;10.57;8.83;;;;;;;9.36;71.25;100849.94;693771;28;867;-48
2021/05/14 01:13:46;;;;;;;11.25;9.13;;;;;;;9.38;71.42;100842.84;693573;28;1244;-48
2021/05/14 01:14:07;;;;;;;11.23;9.20;;;;;;;9.46;70.85;100843.44;693772;28;871;-45
2021/05/14 01:14:28;;;;;;;10.75;9.20;;;;;;;9.48;70.72;100846.84;693737;28;880;-51
2021/05/14 01:14:48;;;;;;;10.63;9.20;;;;;;;9.49;70.79;100845.06;695806;28;1431;-47
2021/05/14 01:15:09;;;;;;;10.30;9.20;;;;;;;9.45;70.93;100843.47;696582;28;1030;-47
2021/05/14 01:15:29;;;;;;;9.85;8.70;;;;;;;9.42;70.99;100841.81;696508;28;875;-48
2021/05/14 01:15:50;;;;;;;10.23;9.00;;;;;;;9.38;70.55;100848.09;696444;28;947;-49
2021/05/14 01:16:10;;;;;;;9.93;8.93;;;;;;;9.39;70.96;100844.53;696515;28;1228;-48
2021/05/14 01:16:33;;;;;;;11.13;9.13;;;;;;;9.41;70.95;100847.13;696568;28;858;-49
2021/05/14 01:16:53;;;;;;;10.73;9.43;;;;;;;9.39;70.63;100844.53;696470;28;1011;-48
2021/05/14 01:17:16;;;;;;;10.47;9.37;;;;;;;9.40;70.46;100843.66;696343;28;1442;-49
2021/05/14 01:17:37;;;;;;;10.55;9.45;;;;;;;9.37;71.01;100842.91;696480;28;954;-48
2021/05/14 01:17:57;;;;;;;10.60;9.33;;;;;;;9.41;70.65;100842.72;696506;28;816;-49
2021/05/14 01:18:17;;;;;;;10.10;8.88;;;;;;;9.39;70.79;100844.53;696406;28;998;-46
2021/05/14 01:18:38;;;;;;;10.40;9.20;;;;;;;9.38;71.00;100842.00;695969;28;850;-46
2021/05/14 01:18:58;;;;;;;10.47;9.37;;;;;;;9.37;70.88;100846.41;696412;28;799;-45
2021/05/14 01:19:18;;;;;;;10.55;9.23;;;;;;;9.36;70.89;100841.16;697446;28;1006;-46
2021/05/14 01:19:39;;;;;;;10.30;9.20;;;;;;;9.36;70.98;100838.53;697296;28;1209;-46
2021/05/14 01:20:03;;;;;;;10.63;9.52;;;;;;;9.34;70.75;100846.50;696955;28;1331;-46
2021/05/14 01:20:31;;;;;;;10.55;9.35;;;;;;;9.33;70.92;100842.16;698025;28;923;-46
2021/05/14 01:20:51;;;;;;;10.92;9.54;;;;;;;9.33;70.88;100844.78;697310;28;1530;-46
2021/05/14 01:21:11;;;;;;;11.03;9.53;;;;;;;9.33;70.98;100849.19;697646;28;1570;-47
2021/05/14 01:21:32;;;;;;;10.60;9.50;;;;;;;9.28;71.12;100841.47;697522;28;1408;-46
2021/05/14 01:21:52;;;;;;;10.40;8.95;;;;;;;9.27;71.06;100834.50;697879;28;1455;-46
2021/05/14 01:22:13;;;;;;;11.05;9.43;;;;;;;9.30;71.11;100844.06;697638;28;914;-46
2021/05/14 01:22:33;;;;;;;11.33;9.07;;;;;;;9.32;71.07;100842.19;697850;28;1100;-49
2021/05/14 01:22:56;;;;;;;11.50;9.20;;;;;;;9.32;71.22;100848.31;697423;28;946;-51
2021/05/14 01:23:17;;;;;;;10.63;9.25;;;;;;;9.34;71.02;100840.38;697860;28;899;-47
2021/05/14 01:23:39;;;;;;;10.63;9.20;;;;;;;9.39;70.84;100841.91;696986;28;1217;-48
2021/05/14 01:24:00;;;;;;;11.25;9.75;;;;;;;9.35;70.88;100837.69;696829;28;1022;-47
2021/05/14 01:24:21;;;;;;;10.82;9.68;;;;;;;9.35;70.91;100847.34;696718;28;942;-46
2021/05/14 01:24:41;;;;;;;10.68;9.30;;;;;;;9.35;71.03;100842.94;696368;28;1470;-48
2021/05/14 01:25:02;;;;;;;11.40;9.33;;;;;;;9.36;70.81;100847.31;696295;28;1498;-49
2021/05/14 01:25:23;;;;;;;11.88;9.50;;;;;;;9.34;71.17;100845.66;696351;28;796;-49
2021/05/14 01:25:43;;;;;;;11.25;9.30;;;;;;;9.34;70.98;100843.88;696481;28;800;-50
2021/05/14 01:26:14;;;;;;;10.63;9.33;;;;;;;9.35;71.11;100845.56;696522;28;1006;-59
2021/05/14 01:26:38;;;;;;;10.77;9.40;;;;;;;9.36;71.00;100838.53;696503;28;826;-48
2021/05/14 01:26:59;;;;;;;11.30;9.55;;;;;;;9.37;71.11;100849.03;696534;28;1904;-49
2021/05/14 01:27:19;;;;;;;10.63;9.07;;;;;;;9.37;71.30;100842.91;696369;28;849;-49
2021/05/14 01:27:40;;;;;;;10.63;8.90;;;;;;;9.32;71.24;100845.69;696500;28;818;-47
2021/05/14 01:28:00;;;;;;;11.95;9.30;;;;;;;9.34;71.13;100846.50;696633;28;871;-46
2021/05/14 01:28:20;;;;;;;11.27;9.50;;;;;;;9.34;71.37;100840.38;696531;28;861;-49
2021/05/14 01:28:41;;;;;;;10.13;9.07;;;;;;;9.37;71.24;100845.53;696125;28;974;-51
2021/05/14 01:29:04;;;;;;;10.35;9.25;;;;;;;9.36;71.00;100843.81;696485;28;1005;-48
2021/05/14 01:29:24;;;;;;;10.15;9.05;;;;;;;9.34;71.25;100843.88;696395;28;913;-50
2021/05/14 01:29:47;;;;;;;10.17;9.17;;;;;;;9.36;71.19;100844.69;696502;28;1005;-49
2021/05/14 01:30:08;;;;;;;10.60;9.40;;;;;;;9.39;71.10;100848.94;696403;28;854;-46
2021/05/14 01:30:28;;;;;;;10.70;9.60;;;;;;;9.36;71.33;100843.81;696180;28;1209;-50
2021/05/14 01:30:49;;;;;;;10.80;9.60;;;;;;;9.33;71.43;100849.19;696237;28;879;-50
2021/05/14 01:31:10;;;;;;;11.10;10.00;;;;;;;9.34;71.37;100845.66;696241;28;1127;-49
2021/05/14 01:31:33;;;;;;;11.07;9.43;;;;;;;9.36;71.46;100846.44;696113;28;823;-47
2021/05/14 01:31:55;;;;;;;11.27;9.80;;;;;;;9.35;71.31;100842.94;695323;28;1598;-45
2021/05/14 01:32:16;;;;;;;11.00;9.40;;;;;;;9.38;71.45;100837.56;695862;28;1467;-45
2021/05/14 01:32:37;;;;;;;10.85;9.40;;;;;;;9.33;71.39;100844.78;695842;28;1370;-46
2021/05/14 01:32:58;;;;;;;11.35;9.82;;;;;;;9.38;71.62;100842.00;696433;28;939;-45
2021/05/14 01:33:18;;;;;;;11.07;9.77;;;;;;;9.37;71.42;100840.28;697080;28;792;-46
2021/05/14 01:33:41;;;;;;;10.27;8.90;;;;;;;9.40;71.30;100848.06;696491;28;1280;-45
2021/05/14 01:34:04;;;;;;;10.57;9.43;;;;;;;9.39;71.36;100838.44;697360;28;939;-45
2021/05/14 01:34:24;;;;;;;11.80;9.90;;;;;;;9.37;71.13;100841.13;697432;28;867;-48
2021/05/14 01:34:45;;;;;;;11.03;9.60;;;;;;;9.41;71.33;100844.50;697814;28;958;-45
2021/05/14 01:35:06;;;;;;;10.68;8.73;;;;;;;9.42;71.04;100841.81;697662;28;946;-45
2021/05/14 01:35:26;;;;;;;10.43;9.07;;;;;;;9.43;70.89;100846.19;697791;28;946;-46
2021/05/14 01:35:47;;;;;;;10.50;9.40;;;;;;;9.45;70.92;100846.09;696946;28;1514;-46
2021/05/14 01:36:08;;;;;;;10.70;9.45;;;;;;;9.44;71.02;100840.00;698081;28;962;-47
2021/05/14 01:36:29;;;;;;;11.15;9.35;;;;;;;9.45;71.10;100840.84;697985;28;1050;-51
2021/05/14 01:36:52;;;;;;;10.63;9.10;;;;;;;9.43;71.10;100840.91;697746;28;837;-46
2021/05/14 01:37:12;;;;;;;11.02;9.80;;;;;;;9.40;71.31;100840.16;697317;28;902;-45
2021/05/14 01:37:32;;;;;;;10.90;9.63;;;;;;;9.40;71.35;100840.16;696719;28;1581;-45
2021/05/14 01:37:53;;;;;;;10.63;9.50;;;;;;;9.36;71.25;100839.44;697958;28;883;-51
2021/05/14 01:38:13;;;;;;;10.70;9.60;;;;;;;9.36;71.10;100844.69;698015;28;870;-46
2021/05/14 01:38:34;;;;;;;11.50;9.57;;;;;;;9.32;71.39;100843.06;697835;28;1006;-46
2021/05/14 01:38:54;;;;;;;10.82;9.32;;;;;;;9.32;71.24;100843.06;696869;28;965;-46
2021/05/14 01:39:17;;;;;;;10.43;9.33;;;;;;;9.35;71.48;100844.72;696877;28;847;-46
2021/05/14 01:39:38;;;;;;;10.63;9.52;;;;;;;9.36;71.45;100839.44;696254;28;1456;-47
2021/05/14 01:39:58;;;;;;;10.68;9.55;;;;;;;9.40;71.47;100850.69;696442;28;871;-48
2021/05/14 01:40:18;;;;;;;10.60;9.50;;;;;;;9.45;71.04;100846.97;696611;28;997;-46
2021/05/14 01:40:40;;;;;;;11.13;9.43;;;;;;;9.42;70.97;100838.31;696383;28;1431;-47
2021/05/14 01:41:01;;;;;;;11.43;9.52;;;;;;;9.41;71.18;100842.72;696398;28;910;-57
2021/05/14 01:41:21;;;;;;;11.20;9.80;;;;;;;9.42;71.06;100839.19;696415;28;930;-50
2021/05/14 01:41:42;;;;;;;10.55;9.45;;;;;;;9.39;70.95;100849.81;696131;28;1077;-48
2021/05/14 01:42:03;;;;;;;10.93;9.63;;;;;;;9.38;71.42;100842.00;696399;28;993;-47
2021/05/14 01:42:23;;;;;;;11.02;9.82;;;;;;;9.38;71.23;100842.84;696251;28;1493;-49
2021/05/14 01:42:47;;;;;;;10.60;9.50;;;;;;;9.38;71.26;100842.00;696314;28;963;-46